sensor_id;sensor_type;location;lat;lon;timestamp;P1;durP1;ratioP1;P2;durP2;ratioP2
44130;SDS011;29792;48.726;9.248;2023-02-12T00:00:07;30.58;;;23.48;;
44130;SDS011;29792;48.726;9.248;2023-02-12T00:02:34;30.08;;;21.63;;
44130;SDS011;29792;48.726;9.248;2023-02-12T00:04:59;39.25;;;23.40;;
44130;SDS011;29792;48.726;9.248;2023-02-12T00:07:24;35.13;;;22.67;;
44130;SDS011;29792;48.726;9.248;2023-02-12T00:09:50;28.92;;;21.35;;
44130;SDS011;29792;48.726;9.248;2023-02-12T00:12:15;33.90;;;22.10;;
44130;SDS011;29792;48.726;9.248;2023-02-12T00:14:40;31.55;;;22.08;;
44130;SDS011;29792;48.726;9.248;2023-02-12T00:17:06;33.65;;;22.85;;
44130;SDS011;29792;48.726;9.248;2023-02-12T00:19:31;33.55;;;22.25;;
44130;SDS011;29792;48.726;9.248;2023-02-12T00:21:56;28.55;;;20.67;;
44130;SDS011;29792;48.726;9.248;2023-02-12T00:24:22;31.25;;;22.42;;
44130;SDS011;29792;48.726;9.248;2023-02-12T00:26:47;32.80;;;22.58;;
44130;SDS011;29792;48.726;9.248;2023-02-12T00:29:13;31.95;;;23.27;;
44130;SDS011;29792;48.726;9.248;2023-02-12T00:31:38;31.58;;;23.60;;
44130;SDS011;29792;48.726;9.248;2023-02-12T00:34:04;29.13;;;20.92;;
44130;SDS011;29792;48.726;9.248;2023-02-12T00:36:29;28.98;;;22.23;;
44130;SDS011;29792;48.726;9.248;2023-02-12T00:38:56;32.67;;;23.70;;
44130;SDS011;29792;48.726;9.248;2023-02-12T00:41:21;31.77;;;22.35;;
44130;SDS011;29792;48.726;9.248;2023-02-12T00:43:47;31.13;;;21.40;;
44130;SDS011;29792;48.726;9.248;2023-02-12T00:46:13;30.55;;;22.73;;
44130;SDS011;29792;48.726;9.248;2023-02-12T00:48:39;30.27;;;21.17;;
44130;SDS011;29792;48.726;9.248;2023-02-12T00:51:04;29.85;;;22.80;;
44130;SDS011;29792;48.726;9.248;2023-02-12T00:53:30;30.13;;;21.13;;
44130;SDS011;29792;48.726;9.248;2023-02-12T00:55:59;36.00;;;23.00;;
44130;SDS011;29792;48.726;9.248;2023-02-12T00:58:25;31.15;;;22.35;;
44130;SDS011;29792;48.726;9.248;2023-02-12T01:00:51;30.65;;;22.13;;
44130;SDS011;29792;48.726;9.248;2023-02-12T01:03:17;34.95;;;22.73;;
44130;SDS011;29792;48.726;9.248;2023-02-12T01:05:43;27.25;;;21.15;;
44130;SDS011;29792;48.726;9.248;2023-02-12T01:08:10;29.60;;;22.23;;
44130;SDS011;29792;48.726;9.248;2023-02-12T01:10:36;30.85;;;21.58;;
44130;SDS011;29792;48.726;9.248;2023-02-12T01:13:01;37.63;;;24.27;;
44130;SDS011;29792;48.726;9.248;2023-02-12T01:15:26;33.28;;;22.88;;
44130;SDS011;29792;48.726;9.248;2023-02-12T01:17:52;34.17;;;22.25;;
44130;SDS011;29792;48.726;9.248;2023-02-12T01:20:18;28.60;;;21.67;;
44130;SDS011;29792;48.726;9.248;2023-02-12T01:22:45;25.10;;;19.85;;
44130;SDS011;29792;48.726;9.248;2023-02-12T01:25:11;31.83;;;22.83;;
44130;SDS011;29792;48.726;9.248;2023-02-12T01:27:36;31.25;;;23.42;;
44130;SDS011;29792;48.726;9.248;2023-02-12T01:30:02;28.80;;;22.63;;
44130;SDS011;29792;48.726;9.248;2023-02-12T01:32:29;31.83;;;24.15;;
44130;SDS011;29792;48.726;9.248;2023-02-12T01:34:54;34.72;;;24.40;;
44130;SDS011;29792;48.726;9.248;2023-02-12T01:37:19;30.35;;;22.10;;
44130;SDS011;29792;48.726;9.248;2023-02-12T01:39:44;28.25;;;21.27;;
44130;SDS011;29792;48.726;9.248;2023-02-12T01:42:13;28.67;;;22.77;;
44130;SDS011;29792;48.726;9.248;2023-02-12T01:44:43;30.23;;;21.27;;
44130;SDS011;29792;48.726;9.248;2023-02-12T01:47:29;30.25;;;22.45;;
44130;SDS011;29792;48.726;9.248;2023-02-12T01:49:54;35.60;;;23.88;;
44130;SDS011;29792;48.726;9.248;2023-02-12T01:52:20;35.95;;;24.27;;
44130;SDS011;29792;48.726;9.248;2023-02-12T01:54:53;34.85;;;25.05;;
44130;SDS011;29792;48.726;9.248;2023-02-12T01:57:22;37.80;;;26.13;;
44130;SDS011;29792;48.726;9.248;2023-02-12T01:59:51;31.50;;;23.13;;
44130;SDS011;29792;48.726;9.248;2023-02-12T02:02:20;33.30;;;23.60;;
44130;SDS011;29792;48.726;9.248;2023-02-12T02:04:47;36.92;;;25.13;;
44130;SDS011;29792;48.726;9.248;2023-02-12T02:07:19;29.73;;;21.52;;
44130;SDS011;29792;48.726;9.248;2023-02-12T02:09:45;32.42;;;23.00;;
44130;SDS011;29792;48.726;9.248;2023-02-12T02:12:10;32.38;;;23.27;;
44130;SDS011;29792;48.726;9.248;2023-02-12T02:14:55;30.67;;;22.08;;
44130;SDS011;29792;48.726;9.248;2023-02-12T02:20:28;31.90;;;23.73;;
44130;SDS011;29792;48.726;9.248;2023-02-12T02:26:21;30.67;;;21.63;;
44130;SDS011;29792;48.726;9.248;2023-02-12T02:32:07;31.45;;;21.92;;
44130;SDS011;29792;48.726;9.248;2023-02-12T02:35:16;37.33;;;22.27;;
44130;SDS011;29792;48.726;9.248;2023-02-12T02:40:40;31.15;;;22.50;;
44130;SDS011;29792;48.726;9.248;2023-02-12T02:43:18;32.17;;;21.10;;
44130;SDS011;29792;48.726;9.248;2023-02-12T02:45:49;30.55;;;20.85;;
44130;SDS011;29792;48.726;9.248;2023-02-12T02:48:23;32.42;;;21.83;;
44130;SDS011;29792;48.726;9.248;2023-02-12T02:50:55;23.23;;;16.30;;
44130;SDS011;29792;48.726;9.248;2023-02-12T02:53:26;31.15;;;21.15;;
44130;SDS011;29792;48.726;9.248;2023-02-12T02:55:55;27.50;;;21.42;;
44130;SDS011;29792;48.726;9.248;2023-02-12T02:58:40;28.70;;;20.88;;
44130;SDS011;29792;48.726;9.248;2023-02-12T03:01:09;38.35;;;21.75;;
44130;SDS011;29792;48.726;9.248;2023-02-12T03:06:40;31.77;;;23.05;;
44130;SDS011;29792;48.726;9.248;2023-02-12T03:09:25;32.72;;;26.30;;
44130;SDS011;29792;48.726;9.248;2023-02-12T03:11:59;28.00;;;22.58;;
44130;SDS011;29792;48.726;9.248;2023-02-12T03:14:30;34.55;;;23.73;;
44130;SDS011;29792;48.726;9.248;2023-02-12T03:17:03;41.33;;;23.42;;
44130;SDS011;29792;48.726;9.248;2023-02-12T03:19:46;34.15;;;24.98;;
44130;SDS011;29792;48.726;9.248;2023-02-12T03:22:17;32.05;;;24.73;;
44130;SDS011;29792;48.726;9.248;2023-02-12T03:24:48;33.50;;;23.10;;
44130;SDS011;29792;48.726;9.248;2023-02-12T03:27:18;32.83;;;25.85;;
44130;SDS011;29792;48.726;9.248;2023-02-12T03:29:46;29.85;;;23.23;;
44130;SDS011;29792;48.726;9.248;2023-02-12T03:33:15;36.35;;;22.45;;
44130;SDS011;29792;48.726;9.248;2023-02-12T03:35:21;35.13;;;23.70;;
44130;SDS011;29792;48.726;9.248;2023-02-12T03:40:37;31.63;;;23.20;;
44130;SDS011;29792;48.726;9.248;2023-02-12T03:43:18;29.75;;;22.50;;
44130;SDS011;29792;48.726;9.248;2023-02-12T03:45:58;29.55;;;22.08;;
44130;SDS011;29792;48.726;9.248;2023-02-12T03:48:32;33.83;;;23.92;;
44130;SDS011;29792;48.726;9.248;2023-02-12T03:53:47;39.88;;;22.45;;
44130;SDS011;29792;48.726;9.248;2023-02-12T03:56:21;33.08;;;22.73;;
44130;SDS011;29792;48.726;9.248;2023-02-12T03:58:51;32.45;;;23.27;;
44130;SDS011;29792;48.726;9.248;2023-02-12T04:01:16;30.65;;;22.40;;
44130;SDS011;29792;48.726;9.248;2023-02-12T04:03:42;33.53;;;24.05;;
44130;SDS011;29792;48.726;9.248;2023-02-12T04:06:23;34.95;;;23.20;;
44130;SDS011;29792;48.726;9.248;2023-02-12T04:08:51;34.72;;;24.40;;
44130;SDS011;29792;48.726;9.248;2023-02-12T04:11:26;31.27;;;22.42;;
44130;SDS011;29792;48.726;9.248;2023-02-12T04:14:12;29.63;;;23.55;;
44130;SDS011;29792;48.726;9.248;2023-02-12T04:17:12;29.30;;;21.88;;
44130;SDS011;29792;48.726;9.248;2023-02-12T04:20:03;32.83;;;22.60;;
44130;SDS011;29792;48.726;9.248;2023-02-12T04:22:42;28.10;;;21.40;;
44130;SDS011;29792;48.726;9.248;2023-02-12T04:28:06;34.25;;;22.52;;
44130;SDS011;29792;48.726;9.248;2023-02-12T04:30:41;32.33;;;22.08;;
44130;SDS011;29792;48.726;9.248;2023-02-12T04:33:12;29.35;;;21.55;;
44130;SDS011;29792;48.726;9.248;2023-02-12T04:35:48;28.67;;;21.80;;
44130;SDS011;29792;48.726;9.248;2023-02-12T04:38:36;28.48;;;21.50;;
44130;SDS011;29792;48.726;9.248;2023-02-12T04:41:06;28.88;;;20.42;;
44130;SDS011;29792;48.726;9.248;2023-02-12T04:43:35;30.67;;;22.50;;
44130;SDS011;29792;48.726;9.248;2023-02-12T04:46:02;28.33;;;21.35;;
44130;SDS011;29792;48.726;9.248;2023-02-12T04:48:28;32.13;;;21.45;;
44130;SDS011;29792;48.726;9.248;2023-02-12T04:50:53;25.70;;;20.10;;
44130;SDS011;29792;48.726;9.248;2023-02-12T04:53:19;30.08;;;21.63;;
44130;SDS011;29792;48.726;9.248;2023-02-12T04:55:44;30.98;;;21.33;;
44130;SDS011;29792;48.726;9.248;2023-02-12T04:58:11;31.40;;;22.75;;
44130;SDS011;29792;48.726;9.248;2023-02-12T05:00:36;26.75;;;20.33;;
44130;SDS011;29792;48.726;9.248;2023-02-12T05:03:02;34.35;;;21.67;;
44130;SDS011;29792;48.726;9.248;2023-02-12T05:05:27;29.08;;;20.80;;
44130;SDS011;29792;48.726;9.248;2023-02-12T05:07:52;30.33;;;21.40;;
44130;SDS011;29792;48.726;9.248;2023-02-12T05:10:18;33.30;;;22.13;;
44130;SDS011;29792;48.726;9.248;2023-02-12T05:12:43;30.33;;;21.45;;
44130;SDS011;29792;48.726;9.248;2023-02-12T05:15:08;30.00;;;19.95;;
44130;SDS011;29792;48.726;9.248;2023-02-12T05:17:42;26.23;;;18.52;;
44130;SDS011;29792;48.726;9.248;2023-02-12T05:25:00;35.83;;;20.70;;
44130;SDS011;29792;48.726;9.248;2023-02-12T05:27:25;28.95;;;22.40;;
44130;SDS011;29792;48.726;9.248;2023-02-12T05:29:51;28.65;;;20.58;;
44130;SDS011;29792;48.726;9.248;2023-02-12T05:32:16;30.92;;;21.17;;
44130;SDS011;29792;48.726;9.248;2023-02-12T05:34:41;30.65;;;21.52;;
44130;SDS011;29792;48.726;9.248;2023-02-12T05:37:06;32.03;;;24.35;;
44130;SDS011;29792;48.726;9.248;2023-02-12T05:39:32;26.85;;;21.30;;
44130;SDS011;29792;48.726;9.248;2023-02-12T05:41:57;28.65;;;20.88;;
44130;SDS011;29792;48.726;9.248;2023-02-12T05:44:22;30.27;;;22.77;;
44130;SDS011;29792;48.726;9.248;2023-02-12T05:46:47;29.15;;;21.45;;
44130;SDS011;29792;48.726;9.248;2023-02-12T05:49:13;28.77;;;20.90;;
44130;SDS011;29792;48.726;9.248;2023-02-12T05:51:38;32.08;;;22.52;;
44130;SDS011;29792;48.726;9.248;2023-02-12T05:54:04;31.85;;;22.27;;
44130;SDS011;29792;48.726;9.248;2023-02-12T05:56:31;27.08;;;21.25;;
44130;SDS011;29792;48.726;9.248;2023-02-12T05:58:59;34.03;;;23.23;;
44130;SDS011;29792;48.726;9.248;2023-02-12T06:01:31;27.17;;;21.30;;
44130;SDS011;29792;48.726;9.248;2023-02-12T06:03:59;29.38;;;20.38;;
44130;SDS011;29792;48.726;9.248;2023-02-12T06:06:26;26.27;;;20.77;;
44130;SDS011;29792;48.726;9.248;2023-02-12T06:08:52;31.17;;;21.40;;
44130;SDS011;29792;48.726;9.248;2023-02-12T06:11:18;26.65;;;18.92;;
44130;SDS011;29792;48.726;9.248;2023-02-12T06:13:44;33.97;;;23.23;;
44130;SDS011;29792;48.726;9.248;2023-02-12T06:16:17;27.77;;;20.40;;
44130;SDS011;29792;48.726;9.248;2023-02-12T06:18:45;31.63;;;22.00;;
44130;SDS011;29792;48.726;9.248;2023-02-12T06:21:11;29.95;;;20.38;;
44130;SDS011;29792;48.726;9.248;2023-02-12T06:23:36;28.85;;;22.75;;
44130;SDS011;29792;48.726;9.248;2023-02-12T06:26:02;30.50;;;21.27;;
44130;SDS011;29792;48.726;9.248;2023-02-12T06:28:27;29.65;;;22.65;;
44130;SDS011;29792;48.726;9.248;2023-02-12T06:30:52;32.55;;;21.25;;
44130;SDS011;29792;48.726;9.248;2023-02-12T06:33:18;27.90;;;20.05;;
44130;SDS011;29792;48.726;9.248;2023-02-12T06:35:43;30.05;;;22.80;;
44130;SDS011;29792;48.726;9.248;2023-02-12T06:38:09;29.30;;;22.40;;
44130;SDS011;29792;48.726;9.248;2023-02-12T06:40:35;51.65;;;23.55;;
44130;SDS011;29792;48.726;9.248;2023-02-12T06:43:00;31.58;;;21.98;;
44130;SDS011;29792;48.726;9.248;2023-02-12T06:45:25;28.83;;;21.60;;
44130;SDS011;29792;48.726;9.248;2023-02-12T06:47:51;34.17;;;24.17;;
44130;SDS011;29792;48.726;9.248;2023-02-12T06:50:16;30.67;;;23.38;;
44130;SDS011;29792;48.726;9.248;2023-02-12T06:52:41;35.72;;;24.73;;
44130;SDS011;29792;48.726;9.248;2023-02-12T06:55:07;34.55;;;24.48;;
44130;SDS011;29792;48.726;9.248;2023-02-12T06:57:32;37.10;;;28.00;;
44130;SDS011;29792;48.726;9.248;2023-02-12T06:59:57;37.70;;;27.35;;
44130;SDS011;29792;48.726;9.248;2023-02-12T07:02:23;42.75;;;29.95;;
44130;SDS011;29792;48.726;9.248;2023-02-12T07:04:48;36.95;;;26.05;;
44130;SDS011;29792;48.726;9.248;2023-02-12T07:07:13;40.75;;;28.77;;
44130;SDS011;29792;48.726;9.248;2023-02-12T07:09:38;38.08;;;26.52;;
44130;SDS011;29792;48.726;9.248;2023-02-12T07:12:04;40.55;;;26.52;;
44130;SDS011;29792;48.726;9.248;2023-02-12T07:14:29;39.78;;;24.95;;
44130;SDS011;29792;48.726;9.248;2023-02-12T07:16:54;37.83;;;24.95;;
44130;SDS011;29792;48.726;9.248;2023-02-12T07:19:20;38.65;;;27.05;;
44130;SDS011;29792;48.726;9.248;2023-02-12T07:21:45;36.83;;;26.80;;
44130;SDS011;29792;48.726;9.248;2023-02-12T07:24:11;33.33;;;23.58;;
44130;SDS011;29792;48.726;9.248;2023-02-12T07:26:37;37.55;;;24.48;;
44130;SDS011;29792;48.726;9.248;2023-02-12T07:29:03;33.90;;;25.65;;
44130;SDS011;29792;48.726;9.248;2023-02-12T07:31:29;35.63;;;26.08;;
44130;SDS011;29792;48.726;9.248;2023-02-12T07:33:55;33.33;;;25.25;;
44130;SDS011;29792;48.726;9.248;2023-02-12T07:36:22;34.95;;;25.65;;
44130;SDS011;29792;48.726;9.248;2023-02-12T07:38:48;40.30;;;26.67;;
44130;SDS011;29792;48.726;9.248;2023-02-12T07:41:20;30.02;;;23.02;;
44130;SDS011;29792;48.726;9.248;2023-02-12T07:43:53;35.97;;;25.35;;
44130;SDS011;29792;48.726;9.248;2023-02-12T07:46:32;33.22;;;23.65;;
44130;SDS011;29792;48.726;9.248;2023-02-12T07:49:00;40.58;;;25.98;;
44130;SDS011;29792;48.726;9.248;2023-02-12T07:51:28;35.22;;;25.00;;
44130;SDS011;29792;48.726;9.248;2023-02-12T07:53:54;33.78;;;26.08;;
44130;SDS011;29792;48.726;9.248;2023-02-12T07:56:20;35.08;;;25.65;;
44130;SDS011;29792;48.726;9.248;2023-02-12T07:58:48;36.28;;;25.60;;
44130;SDS011;29792;48.726;9.248;2023-02-12T08:01:22;39.40;;;28.00;;
44130;SDS011;29792;48.726;9.248;2023-02-12T08:04:02;39.38;;;29.73;;
44130;SDS011;29792;48.726;9.248;2023-02-12T08:06:30;36.58;;;27.75;;
44130;SDS011;29792;48.726;9.248;2023-02-12T08:08:57;42.40;;;30.30;;
44130;SDS011;29792;48.726;9.248;2023-02-12T08:11:25;37.60;;;28.75;;
44130;SDS011;29792;48.726;9.248;2023-02-12T08:13:51;41.22;;;31.90;;
44130;SDS011;29792;48.726;9.248;2023-02-12T08:16:18;39.67;;;28.25;;
44130;SDS011;29792;48.726;9.248;2023-02-12T08:18:45;37.28;;;28.30;;
44130;SDS011;29792;48.726;9.248;2023-02-12T08:21:12;40.42;;;26.65;;
44130;SDS011;29792;48.726;9.248;2023-02-12T08:23:39;42.38;;;29.98;;
44130;SDS011;29792;48.726;9.248;2023-02-12T08:28:35;41.72;;;28.95;;
44130;SDS011;29792;48.726;9.248;2023-02-12T08:31:04;40.35;;;26.50;;
44130;SDS011;29792;48.726;9.248;2023-02-12T08:33:31;40.55;;;27.08;;
44130;SDS011;29792;48.726;9.248;2023-02-12T08:36:00;38.75;;;25.75;;
44130;SDS011;29792;48.726;9.248;2023-02-12T08:38:45;40.63;;;29.90;;
44130;SDS011;29792;48.726;9.248;2023-02-12T08:41:14;38.83;;;28.40;;
44130;SDS011;29792;48.726;9.248;2023-02-12T08:43:41;38.70;;;28.50;;
44130;SDS011;29792;48.726;9.248;2023-02-12T08:46:09;36.97;;;26.17;;
44130;SDS011;29792;48.726;9.248;2023-02-12T08:48:37;34.92;;;25.02;;
44130;SDS011;29792;48.726;9.248;2023-02-12T08:53:30;35.63;;;25.33;;
44130;SDS011;29792;48.726;9.248;2023-02-12T08:55:56;40.35;;;31.05;;
44130;SDS011;29792;48.726;9.248;2023-02-12T08:58:21;38.30;;;28.02;;
44130;SDS011;29792;48.726;9.248;2023-02-12T09:00:47;40.03;;;28.38;;
44130;SDS011;29792;48.726;9.248;2023-02-12T09:03:12;41.08;;;25.48;;
44130;SDS011;29792;48.726;9.248;2023-02-12T09:05:38;39.55;;;26.17;;
44130;SDS011;29792;48.726;9.248;2023-02-12T09:08:04;38.70;;;29.05;;
44130;SDS011;29792;48.726;9.248;2023-02-12T09:10:30;39.20;;;28.17;;
44130;SDS011;29792;48.726;9.248;2023-02-12T09:12:55;37.38;;;24.20;;
44130;SDS011;29792;48.726;9.248;2023-02-12T09:15:20;36.40;;;25.60;;
44130;SDS011;29792;48.726;9.248;2023-02-12T09:17:46;34.88;;;23.92;;
44130;SDS011;29792;48.726;9.248;2023-02-12T09:20:11;34.70;;;24.63;;
44130;SDS011;29792;48.726;9.248;2023-02-12T09:22:37;30.02;;;20.27;;
44130;SDS011;29792;48.726;9.248;2023-02-12T09:25:03;24.40;;;16.45;;
44130;SDS011;29792;48.726;9.248;2023-02-12T09:27:29;21.38;;;15.32;;
44130;SDS011;29792;48.726;9.248;2023-02-12T09:29:55;22.60;;;16.48;;
44130;SDS011;29792;48.726;9.248;2023-02-12T09:32:20;20.70;;;14.63;;
44130;SDS011;29792;48.726;9.248;2023-02-12T09:34:45;20.13;;;15.65;;
44130;SDS011;29792;48.726;9.248;2023-02-12T09:37:10;26.80;;;16.35;;
44130;SDS011;29792;48.726;9.248;2023-02-12T09:39:36;25.65;;;17.25;;
44130;SDS011;29792;48.726;9.248;2023-02-12T09:45:10;27.50;;;17.85;;
44130;SDS011;29792;48.726;9.248;2023-02-12T09:47:56;24.30;;;16.67;;
44130;SDS011;29792;48.726;9.248;2023-02-12T09:50:50;22.80;;;16.42;;
44130;SDS011;29792;48.726;9.248;2023-02-12T09:53:21;21.33;;;16.17;;
44130;SDS011;29792;48.726;9.248;2023-02-12T09:55:49;21.30;;;14.52;;
44130;SDS011;29792;48.726;9.248;2023-02-12T09:58:20;20.90;;;14.75;;
44130;SDS011;29792;48.726;9.248;2023-02-12T10:00:54;17.27;;;12.40;;
44130;SDS011;29792;48.726;9.248;2023-02-12T10:03:19;15.60;;;12.30;;
44130;SDS011;29792;48.726;9.248;2023-02-12T10:05:47;15.38;;;11.48;;
44130;SDS011;29792;48.726;9.248;2023-02-12T10:08:34;13.15;;;10.40;;
44130;SDS011;29792;48.726;9.248;2023-02-12T10:11:23;17.90;;;13.05;;
44130;SDS011;29792;48.726;9.248;2023-02-12T10:17:09;14.68;;;9.95;;
44130;SDS011;29792;48.726;9.248;2023-02-12T10:28:08;10.63;;;7.05;;
44130;SDS011;29792;48.726;9.248;2023-02-12T10:30:44;6.95;;;4.68;;
44130;SDS011;29792;48.726;9.248;2023-02-12T10:33:16;5.50;;;3.85;;
44130;SDS011;29792;48.726;9.248;2023-02-12T10:35:50;5.93;;;3.72;;
44130;SDS011;29792;48.726;9.248;2023-02-12T10:38:38;5.60;;;3.05;;
44130;SDS011;29792;48.726;9.248;2023-02-12T10:41:09;6.93;;;5.22;;
44130;SDS011;29792;48.726;9.248;2023-02-12T10:43:37;5.30;;;4.20;;
44130;SDS011;29792;48.726;9.248;2023-02-12T10:46:02;6.10;;;4.55;;
44130;SDS011;29792;48.726;9.248;2023-02-12T10:48:32;6.82;;;4.28;;
44130;SDS011;29792;48.726;9.248;2023-02-12T11:01:36;7.43;;;6.07;;
44130;SDS011;29792;48.726;9.248;2023-02-12T11:04:18;7.90;;;5.80;;
44130;SDS011;29792;48.726;9.248;2023-02-12T11:07:00;10.18;;;6.75;;
44130;SDS011;29792;48.726;9.248;2023-02-12T11:09:44;7.97;;;5.53;;
44130;SDS011;29792;48.726;9.248;2023-02-12T11:14:58;8.52;;;5.82;;
44130;SDS011;29792;48.726;9.248;2023-02-12T11:17:26;8.50;;;6.22;;
44130;SDS011;29792;48.726;9.248;2023-02-12T11:20:00;7.70;;;5.55;;
44130;SDS011;29792;48.726;9.248;2023-02-12T11:22:28;8.95;;;6.38;;
44130;SDS011;29792;48.726;9.248;2023-02-12T11:25:02;7.88;;;6.18;;
44130;SDS011;29792;48.726;9.248;2023-02-12T11:27:40;7.18;;;4.65;;
44130;SDS011;29792;48.726;9.248;2023-02-12T11:32:34;7.70;;;5.55;;
44130;SDS011;29792;48.726;9.248;2023-02-12T11:35:04;8.20;;;4.45;;
44130;SDS011;29792;48.726;9.248;2023-02-12T11:37:58;6.93;;;4.35;;
44130;SDS011;29792;48.726;9.248;2023-02-12T11:40:29;9.15;;;4.85;;
44130;SDS011;29792;48.726;9.248;2023-02-12T11:43:00;7.78;;;5.32;;
44130;SDS011;29792;48.726;9.248;2023-02-12T11:48:17;6.05;;;4.22;;
44130;SDS011;29792;48.726;9.248;2023-02-12T11:50:46;6.95;;;5.07;;
44130;SDS011;29792;48.726;9.248;2023-02-12T11:53:18;7.22;;;4.72;;
44130;SDS011;29792;48.726;9.248;2023-02-12T11:55:56;5.88;;;4.00;;
44130;SDS011;29792;48.726;9.248;2023-02-12T11:58:25;7.95;;;4.90;;
44130;SDS011;29792;48.726;9.248;2023-02-12T12:00:53;7.90;;;5.10;;
44130;SDS011;29792;48.726;9.248;2023-02-12T12:06:20;8.63;;;5.28;;
44130;SDS011;29792;48.726;9.248;2023-02-12T12:08:51;7.75;;;5.15;;
44130;SDS011;29792;48.726;9.248;2023-02-12T12:11:24;8.52;;;6.00;;
44130;SDS011;29792;48.726;9.248;2023-02-12T12:14:06;7.30;;;5.82;;
44130;SDS011;29792;48.726;9.248;2023-02-12T12:16:49;7.90;;;4.68;;
44130;SDS011;29792;48.726;9.248;2023-02-12T12:19:47;6.97;;;4.60;;
44130;SDS011;29792;48.726;9.248;2023-02-12T12:24:56;5.60;;;3.67;;
44130;SDS011;29792;48.726;9.248;2023-02-12T12:27:39;7.72;;;4.45;;
44130;SDS011;29792;48.726;9.248;2023-02-12T12:51:55;5.82;;;3.42;;
44130;SDS011;29792;48.726;9.248;2023-02-12T12:54:34;4.20;;;2.85;;
44130;SDS011;29792;48.726;9.248;2023-02-12T12:57:38;6.70;;;4.13;;
44130;SDS011;29792;48.726;9.248;2023-02-12T13:03:01;5.60;;;3.10;;
44130;SDS011;29792;48.726;9.248;2023-02-12T13:08:13;5.20;;;3.63;;
44130;SDS011;29792;48.726;9.248;2023-02-12T13:10:44;4.55;;;3.70;;
44130;SDS011;29792;48.726;9.248;2023-02-12T13:16:18;4.28;;;2.42;;
44130;SDS011;29792;48.726;9.248;2023-02-12T13:21:56;4.70;;;2.40;;
44130;SDS011;29792;48.726;9.248;2023-02-12T13:25:06;3.22;;;2.15;;
44130;SDS011;29792;48.726;9.248;2023-02-12T13:27:34;3.30;;;2.95;;
44130;SDS011;29792;48.726;9.248;2023-02-12T13:35:14;4.53;;;2.45;;
44130;SDS011;29792;48.726;9.248;2023-02-12T13:37:46;4.95;;;3.40;;
44130;SDS011;29792;48.726;9.248;2023-02-12T13:40:16;3.20;;;2.53;;
44130;SDS011;29792;48.726;9.248;2023-02-12T13:43:05;4.45;;;3.03;;
44130;SDS011;29792;48.726;9.248;2023-02-12T13:45:51;3.95;;;2.30;;
44130;SDS011;29792;48.726;9.248;2023-02-12T13:48:40;3.40;;;2.60;;
44130;SDS011;29792;48.726;9.248;2023-02-12T13:51:16;3.47;;;2.38;;
44130;SDS011;29792;48.726;9.248;2023-02-12T13:53:58;3.60;;;2.60;;
44130;SDS011;29792;48.726;9.248;2023-02-12T13:56:39;2.75;;;2.28;;
44130;SDS011;29792;48.726;9.248;2023-02-12T14:07:17;4.27;;;2.80;;
44130;SDS011;29792;48.726;9.248;2023-02-12T14:09:45;4.13;;;2.65;;
44130;SDS011;29792;48.726;9.248;2023-02-12T14:12:12;3.90;;;2.45;;
44130;SDS011;29792;48.726;9.248;2023-02-12T14:14:42;4.05;;;2.00;;
44130;SDS011;29792;48.726;9.248;2023-02-12T14:27:41;3.33;;;1.97;;
44130;SDS011;29792;48.726;9.248;2023-02-12T14:37:59;3.25;;;2.38;;
44130;SDS011;29792;48.726;9.248;2023-02-12T14:40:48;2.25;;;1.92;;
44130;SDS011;29792;48.726;9.248;2023-02-12T14:43:25;3.47;;;2.50;;
44130;SDS011;29792;48.726;9.248;2023-02-12T14:45:51;3.05;;;2.10;;
44130;SDS011;29792;48.726;9.248;2023-02-12T14:51:03;5.22;;;2.97;;
44130;SDS011;29792;48.726;9.248;2023-02-12T14:53:36;4.80;;;2.20;;
44130;SDS011;29792;48.726;9.248;2023-02-12T14:56:03;2.33;;;1.80;;
44130;SDS011;29792;48.726;9.248;2023-02-12T14:58:33;2.30;;;1.80;;
44130;SDS011;29792;48.726;9.248;2023-02-12T15:01:00;2.70;;;1.67;;
44130;SDS011;29792;48.726;9.248;2023-02-12T15:03:42;3.80;;;2.45;;
44130;SDS011;29792;48.726;9.248;2023-02-12T15:09:00;3.03;;;1.95;;
44130;SDS011;29792;48.726;9.248;2023-02-12T15:11:34;3.00;;;1.98;;
44130;SDS011;29792;48.726;9.248;2023-02-12T15:16:44;2.63;;;1.67;;
44130;SDS011;29792;48.726;9.248;2023-02-12T15:22:03;3.90;;;1.63;;
44130;SDS011;29792;48.726;9.248;2023-02-12T15:24:42;2.03;;;1.58;;
44130;SDS011;29792;48.726;9.248;2023-02-12T15:27:10;3.58;;;1.67;;
44130;SDS011;29792;48.726;9.248;2023-02-12T15:29:42;1.90;;;1.20;;
44130;SDS011;29792;48.726;9.248;2023-02-12T15:34:52;2.20;;;1.48;;
44130;SDS011;29792;48.726;9.248;2023-02-12T15:37:26;2.10;;;1.45;;
44130;SDS011;29792;48.726;9.248;2023-02-12T15:39:55;6.18;;;1.98;;
44130;SDS011;29792;48.726;9.248;2023-02-12T15:42:28;3.35;;;1.95;;
44130;SDS011;29792;48.726;9.248;2023-02-12T15:45:15;3.15;;;1.63;;
44130;SDS011;29792;48.726;9.248;2023-02-12T15:47:43;3.58;;;1.83;;
44130;SDS011;29792;48.726;9.248;2023-02-12T15:50:14;2.92;;;1.63;;
44130;SDS011;29792;48.726;9.248;2023-02-12T15:52:42;2.42;;;1.42;;
44130;SDS011;29792;48.726;9.248;2023-02-12T15:55:16;3.25;;;1.90;;
44130;SDS011;29792;48.726;9.248;2023-02-12T15:57:50;3.70;;;1.70;;
44130;SDS011;29792;48.726;9.248;2023-02-12T16:00:27;2.38;;;2.00;;
44130;SDS011;29792;48.726;9.248;2023-02-12T16:02:56;3.10;;;1.45;;
44130;SDS011;29792;48.726;9.248;2023-02-12T16:05:21;2.72;;;2.05;;
44130;SDS011;29792;48.726;9.248;2023-02-12T16:07:47;3.55;;;1.35;;
44130;SDS011;29792;48.726;9.248;2023-02-12T16:10:14;2.67;;;2.17;;
44130;SDS011;29792;48.726;9.248;2023-02-12T16:12:41;4.65;;;1.80;;
44130;SDS011;29792;48.726;9.248;2023-02-12T16:15:29;3.28;;;2.15;;
44130;SDS011;29792;48.726;9.248;2023-02-12T16:17:55;3.40;;;2.13;;
44130;SDS011;29792;48.726;9.248;2023-02-12T16:20:24;3.55;;;2.28;;
44130;SDS011;29792;48.726;9.248;2023-02-12T16:22:51;3.22;;;2.42;;
44130;SDS011;29792;48.726;9.248;2023-02-12T16:25:24;2.80;;;1.90;;
44130;SDS011;29792;48.726;9.248;2023-02-12T16:27:56;3.95;;;2.72;;
44130;SDS011;29792;48.726;9.248;2023-02-12T16:30:30;2.95;;;2.33;;
44130;SDS011;29792;48.726;9.248;2023-02-12T16:32:56;6.75;;;3.38;;
44130;SDS011;29792;48.726;9.248;2023-02-12T16:35:30;4.15;;;2.75;;
44130;SDS011;29792;48.726;9.248;2023-02-12T16:37:58;4.65;;;3.35;;
44130;SDS011;29792;48.726;9.248;2023-02-12T16:40:29;4.57;;;3.13;;
44130;SDS011;29792;48.726;9.248;2023-02-12T16:42:57;6.35;;;3.38;;
44130;SDS011;29792;48.726;9.248;2023-02-12T16:47:59;6.63;;;4.22;;
44130;SDS011;29792;48.726;9.248;2023-02-12T16:50:31;6.82;;;4.60;;
44130;SDS011;29792;48.726;9.248;2023-02-12T16:53:00;5.68;;;4.25;;
44130;SDS011;29792;48.726;9.248;2023-02-12T16:55:27;8.18;;;4.38;;
44130;SDS011;29792;48.726;9.248;2023-02-12T16:57:53;6.43;;;4.70;;
44130;SDS011;29792;48.726;9.248;2023-02-12T17:00:18;6.20;;;3.75;;
44130;SDS011;29792;48.726;9.248;2023-02-12T17:02:44;7.15;;;3.83;;
44130;SDS011;29792;48.726;9.248;2023-02-12T17:05:11;4.57;;;3.53;;
44130;SDS011;29792;48.726;9.248;2023-02-12T17:07:40;4.50;;;3.15;;
44130;SDS011;29792;48.726;9.248;2023-02-12T17:10:06;9.13;;;5.25;;
44130;SDS011;29792;48.726;9.248;2023-02-12T17:12:42;6.80;;;4.05;;
44130;SDS011;29792;48.726;9.248;2023-02-12T17:15:28;6.95;;;4.90;;
44130;SDS011;29792;48.726;9.248;2023-02-12T17:17:58;7.70;;;4.30;;
44130;SDS011;29792;48.726;9.248;2023-02-12T17:20:23;5.70;;;4.78;;
44130;SDS011;29792;48.726;9.248;2023-02-12T17:22:52;7.10;;;5.32;;